Главная страница
METAR-TAF:

METAR-TAF

Аэропорты :

Эн-Наджаф, Ирак

широта: 31-59-23N, долгота: 44-24-15E, высота над уровнем моря: 31 м

Текущие метеонаблюдения

Эта сводка был подготовлена 2 часа и 7 минут назад, в 07:00 UTC
Ветер 9 Узел от северо-западный
Температура 39°C
Влажность 8%
Давление 1006 hPa
Видимость: 8000 м

METAR: ORNI 070700Z 32009KT 8000 NSC 39/M01 Q1006 NOSIG

Время: 12:07 (09:07 UTC)

Прогноз

Эта сводка был подготовлена 11 часа и 7 минут назад, в 22:00 UTC
Прогноз действительный с 07-го 00 UTC до 07-го 24 UTC
Ветер 10 Узел от северно-северо-западный
Видимость: 8000 м

TAF: ORNI 062200Z 0700/0724 33010KT 8000 NSC

Метеонаблюдения и прогнозы для более 4000 аэропортов (сводки METAR и TAF).

Имеющиеся станции представлены на карте желтыми и красными точками.

Чтобы увидеть название станции, наведите на нее мышь.

Затем щелкните, чтобы увидеть метеонаблюдения и метеопрогнозы.

Управление картой: чтобы увеличить масштаб, щелкните зеленые кнопки с черным крестиком; чтобы уменьшить масштаб, щелкните зеленую кнопку с тире; для просмотра соседних карт щелкайте зеленые стрелки.


METAR-TAF: